sensor_id;sensor_type;location;lat;lon;timestamp;P1;durP1;ratioP1;P2;durP2;ratioP2
12290;SDS011;6208;48.956;9.076;2023-04-10T00:01:47;9.70;;;8.80;;
12290;SDS011;6208;48.956;9.076;2023-04-10T00:04:31;9.60;;;8.63;;
12290;SDS011;6208;48.956;9.076;2023-04-10T00:07:15;9.75;;;8.75;;
12290;SDS011;6208;48.956;9.076;2023-04-10T00:10:00;10.40;;;9.40;;
12290;SDS011;6208;48.956;9.076;2023-04-10T00:12:44;9.93;;;8.90;;
12290;SDS011;6208;48.956;9.076;2023-04-10T00:15:28;10.07;;;9.07;;
12290;SDS011;6208;48.956;9.076;2023-04-10T00:18:13;10.65;;;9.55;;
12290;SDS011;6208;48.956;9.076;2023-04-10T00:20:58;9.50;;;8.57;;
12290;SDS011;6208;48.956;9.076;2023-04-10T00:23:42;10.45;;;8.90;;
12290;SDS011;6208;48.956;9.076;2023-04-10T00:26:26;11.35;;;9.02;;
12290;SDS011;6208;48.956;9.076;2023-04-10T00:29:10;10.63;;;9.52;;
12290;SDS011;6208;48.956;9.076;2023-04-10T00:31:54;9.60;;;8.68;;
12290;SDS011;6208;48.956;9.076;2023-04-10T00:34:38;12.13;;;9.40;;
12290;SDS011;6208;48.956;9.076;2023-04-10T00:37:22;10.50;;;9.48;;
12290;SDS011;6208;48.956;9.076;2023-04-10T00:40:06;11.38;;;9.40;;
12290;SDS011;6208;48.956;9.076;2023-04-10T00:42:51;10.48;;;8.95;;
12290;SDS011;6208;48.956;9.076;2023-04-10T00:45:35;9.77;;;8.77;;
12290;SDS011;6208;48.956;9.076;2023-04-10T00:48:19;10.63;;;8.98;;
12290;SDS011;6208;48.956;9.076;2023-04-10T00:51:04;10.93;;;9.77;;
12290;SDS011;6208;48.956;9.076;2023-04-10T00:53:49;11.48;;;9.82;;
12290;SDS011;6208;48.956;9.076;2023-04-10T00:56:34;10.45;;;9.35;;
12290;SDS011;6208;48.956;9.076;2023-04-10T00:59:19;11.38;;;9.90;;
12290;SDS011;6208;48.956;9.076;2023-04-10T01:02:04;10.43;;;9.32;;
12290;SDS011;6208;48.956;9.076;2023-04-10T01:04:48;10.30;;;9.23;;
12290;SDS011;6208;48.956;9.076;2023-04-10T01:10:50;10.38;;;9.23;;
12290;SDS011;6208;48.956;9.076;2023-04-10T01:17:30;10.27;;;8.90;;
12290;SDS011;6208;48.956;9.076;2023-04-10T01:20:08;10.33;;;8.83;;
12290;SDS011;6208;48.956;9.076;2023-04-10T01:25:58;9.30;;;8.40;;
12290;SDS011;6208;48.956;9.076;2023-04-10T01:29:03;11.80;;;9.27;;
12290;SDS011;6208;48.956;9.076;2023-04-10T01:34:41;10.10;;;9.10;;
12290;SDS011;6208;48.956;9.076;2023-04-10T01:37:31;10.80;;;9.80;;
12290;SDS011;6208;48.956;9.076;2023-04-10T01:40:20;10.15;;;9.15;;
12290;SDS011;6208;48.956;9.076;2023-04-10T01:43:07;10.90;;;9.80;;
12290;SDS011;6208;48.956;9.076;2023-04-10T01:45:52;10.82;;;9.70;;
12290;SDS011;6208;48.956;9.076;2023-04-10T01:48:38;10.47;;;9.37;;
12290;SDS011;6208;48.956;9.076;2023-04-10T01:51:23;10.90;;;8.90;;
12290;SDS011;6208;48.956;9.076;2023-04-10T01:54:09;11.47;;;8.90;;
12290;SDS011;6208;48.956;9.076;2023-04-10T01:56:53;9.52;;;8.63;;
12290;SDS011;6208;48.956;9.076;2023-04-10T01:59:39;11.48;;;9.90;;
12290;SDS011;6208;48.956;9.076;2023-04-10T02:02:23;10.23;;;9.05;;
12290;SDS011;6208;48.956;9.076;2023-04-10T02:05:08;10.70;;;9.60;;
12290;SDS011;6208;48.956;9.076;2023-04-10T02:08:01;9.73;;;8.73;;
12290;SDS011;6208;48.956;9.076;2023-04-10T02:10:57;9.87;;;8.87;;
12290;SDS011;6208;48.956;9.076;2023-04-10T02:13:54;10.27;;;9.23;;
12290;SDS011;6208;48.956;9.076;2023-04-10T02:16:43;10.40;;;9.40;;
12290;SDS011;6208;48.956;9.076;2023-04-10T02:19:28;11.10;;;9.77;;
12290;SDS011;6208;48.956;9.076;2023-04-10T02:22:14;9.80;;;8.80;;
12290;SDS011;6208;48.956;9.076;2023-04-10T02:24:59;11.43;;;8.60;;
12290;SDS011;6208;48.956;9.076;2023-04-10T02:27:47;9.53;;;8.53;;
12290;SDS011;6208;48.956;9.076;2023-04-10T02:30:31;9.77;;;8.87;;
12290;SDS011;6208;48.956;9.076;2023-04-10T02:33:16;11.37;;;9.60;;
12290;SDS011;6208;48.956;9.076;2023-04-10T02:36:00;9.80;;;8.80;;
12290;SDS011;6208;48.956;9.076;2023-04-10T02:38:45;10.33;;;9.27;;
12290;SDS011;6208;48.956;9.076;2023-04-10T02:41:29;10.17;;;9.10;;
12290;SDS011;6208;48.956;9.076;2023-04-10T02:44:13;11.43;;;10.17;;
12290;SDS011;6208;48.956;9.076;2023-04-10T02:46:57;9.47;;;8.57;;
12290;SDS011;6208;48.956;9.076;2023-04-10T02:49:42;12.07;;;9.73;;
12290;SDS011;6208;48.956;9.076;2023-04-10T02:52:26;12.87;;;9.50;;
12290;SDS011;6208;48.956;9.076;2023-04-10T02:55:10;10.03;;;9.10;;
12290;SDS011;6208;48.956;9.076;2023-04-10T02:57:55;10.20;;;9.20;;
12290;SDS011;6208;48.956;9.076;2023-04-10T03:00:39;9.70;;;8.80;;
12290;SDS011;6208;48.956;9.076;2023-04-10T03:03:23;11.37;;;9.27;;
12290;SDS011;6208;48.956;9.076;2023-04-10T03:06:08;10.50;;;9.20;;
12290;SDS011;6208;48.956;9.076;2023-04-10T03:08:53;10.77;;;9.67;;
12290;SDS011;6208;48.956;9.076;2023-04-10T03:11:37;10.37;;;9.13;;
12290;SDS011;6208;48.956;9.076;2023-04-10T03:14:21;10.23;;;9.23;;
12290;SDS011;6208;48.956;9.076;2023-04-10T03:17:05;9.37;;;8.37;;
12290;SDS011;6208;48.956;9.076;2023-04-10T03:19:49;9.87;;;8.87;;
12290;SDS011;6208;48.956;9.076;2023-04-10T03:22:34;10.47;;;9.30;;
12290;SDS011;6208;48.956;9.076;2023-04-10T03:25:19;10.07;;;8.83;;
12290;SDS011;6208;48.956;9.076;2023-04-10T03:28:03;11.37;;;10.13;;
12290;SDS011;6208;48.956;9.076;2023-04-10T03:30:51;10.53;;;8.50;;
12290;SDS011;6208;48.956;9.076;2023-04-10T03:33:35;9.30;;;8.10;;
12290;SDS011;6208;48.956;9.076;2023-04-10T03:36:19;10.07;;;8.80;;
12290;SDS011;6208;48.956;9.076;2023-04-10T03:39:03;9.47;;;8.47;;
12290;SDS011;6208;48.956;9.076;2023-04-10T03:41:47;10.10;;;8.90;;
12290;SDS011;6208;48.956;9.076;2023-04-10T03:44:31;10.40;;;9.30;;
12290;SDS011;6208;48.956;9.076;2023-04-10T03:47:15;11.60;;;9.00;;
12290;SDS011;6208;48.956;9.076;2023-04-10T03:50:00;9.30;;;8.40;;
12290;SDS011;6208;48.956;9.076;2023-04-10T03:52:44;9.87;;;8.87;;
12290;SDS011;6208;48.956;9.076;2023-04-10T03:55:28;10.13;;;9.03;;
12290;SDS011;6208;48.956;9.076;2023-04-10T03:58:13;9.33;;;8.43;;
12290;SDS011;6208;48.956;9.076;2023-04-10T04:00:57;9.73;;;8.43;;
12290;SDS011;6208;48.956;9.076;2023-04-10T04:03:41;11.13;;;8.77;;
12290;SDS011;6208;48.956;9.076;2023-04-10T04:06:25;8.87;;;8.00;;
12290;SDS011;6208;48.956;9.076;2023-04-10T04:09:10;10.17;;;9.17;;
12290;SDS011;6208;48.956;9.076;2023-04-10T04:11:54;9.83;;;8.83;;
12290;SDS011;6208;48.956;9.076;2023-04-10T04:14:39;10.97;;;9.10;;
12290;SDS011;6208;48.956;9.076;2023-04-10T04:17:23;9.67;;;8.73;;
12290;SDS011;6208;48.956;9.076;2023-04-10T04:20:07;10.73;;;9.03;;
12290;SDS011;6208;48.956;9.076;2023-04-10T04:22:51;11.10;;;9.37;;
12290;SDS011;6208;48.956;9.076;2023-04-10T04:25:36;10.67;;;9.27;;
12290;SDS011;6208;48.956;9.076;2023-04-10T04:28:20;10.10;;;8.87;;
12290;SDS011;6208;48.956;9.076;2023-04-10T04:31:05;9.83;;;8.67;;
12290;SDS011;6208;48.956;9.076;2023-04-10T04:33:49;9.73;;;8.70;;
12290;SDS011;6208;48.956;9.076;2023-04-10T04:36:33;9.63;;;8.70;;
12290;SDS011;6208;48.956;9.076;2023-04-10T04:39:18;9.97;;;8.97;;
12290;SDS011;6208;48.956;9.076;2023-04-10T04:42:03;10.27;;;8.80;;
12290;SDS011;6208;48.956;9.076;2023-04-10T04:44:50;10.83;;;9.53;;
12290;SDS011;6208;48.956;9.076;2023-04-10T04:47:34;10.53;;;9.43;;
12290;SDS011;6208;48.956;9.076;2023-04-10T04:50:18;11.13;;;9.60;;
12290;SDS011;6208;48.956;9.076;2023-04-10T04:53:03;10.40;;;9.33;;
12290;SDS011;6208;48.956;9.076;2023-04-10T04:55:47;9.53;;;8.53;;
12290;SDS011;6208;48.956;9.076;2023-04-10T04:58:32;9.63;;;8.63;;
12290;SDS011;6208;48.956;9.076;2023-04-10T05:01:16;12.03;;;10.13;;
12290;SDS011;6208;48.956;9.076;2023-04-10T05:04:00;9.73;;;8.73;;
12290;SDS011;6208;48.956;9.076;2023-04-10T05:06:45;10.10;;;8.60;;
12290;SDS011;6208;48.956;9.076;2023-04-10T05:09:29;9.97;;;8.43;;
12290;SDS011;6208;48.956;9.076;2023-04-10T05:12:14;9.17;;;8.27;;
12290;SDS011;6208;48.956;9.076;2023-04-10T05:14:58;9.87;;;8.53;;
12290;SDS011;6208;48.956;9.076;2023-04-10T05:17:43;9.83;;;8.73;;
12290;SDS011;6208;48.956;9.076;2023-04-10T05:20:28;11.63;;;9.27;;
12290;SDS011;6208;48.956;9.076;2023-04-10T05:23:12;10.13;;;8.63;;
12290;SDS011;6208;48.956;9.076;2023-04-10T05:25:56;11.13;;;9.20;;
12290;SDS011;6208;48.956;9.076;2023-04-10T05:28:40;10.43;;;9.23;;
12290;SDS011;6208;48.956;9.076;2023-04-10T05:31:24;9.97;;;8.37;;
12290;SDS011;6208;48.956;9.076;2023-04-10T05:34:08;9.93;;;9.00;;
12290;SDS011;6208;48.956;9.076;2023-04-10T05:36:53;10.20;;;9.23;;
12290;SDS011;6208;48.956;9.076;2023-04-10T05:39:38;10.43;;;9.33;;
12290;SDS011;6208;48.956;9.076;2023-04-10T05:42:22;9.90;;;8.53;;
12290;SDS011;6208;48.956;9.076;2023-04-10T05:45:06;12.87;;;8.27;;
12290;SDS011;6208;48.956;9.076;2023-04-10T05:47:51;10.50;;;9.47;;
12290;SDS011;6208;48.956;9.076;2023-04-10T05:50:35;10.27;;;9.13;;
12290;SDS011;6208;48.956;9.076;2023-04-10T05:53:19;9.83;;;8.37;;
12290;SDS011;6208;48.956;9.076;2023-04-10T05:56:04;9.17;;;8.27;;
12290;SDS011;6208;48.956;9.076;2023-04-10T05:58:48;9.10;;;8.20;;
12290;SDS011;6208;48.956;9.076;2023-04-10T06:01:33;9.63;;;8.63;;
12290;SDS011;6208;48.956;9.076;2023-04-10T06:04:17;9.53;;;8.63;;
12290;SDS011;6208;48.956;9.076;2023-04-10T06:07:01;10.13;;;8.70;;
12290;SDS011;6208;48.956;9.076;2023-04-10T06:09:45;9.90;;;8.90;;
12290;SDS011;6208;48.956;9.076;2023-04-10T06:12:29;9.47;;;8.47;;
12290;SDS011;6208;48.956;9.076;2023-04-10T06:15:13;9.83;;;8.60;;
12290;SDS011;6208;48.956;9.076;2023-04-10T06:17:57;9.13;;;8.23;;
12290;SDS011;6208;48.956;9.076;2023-04-10T06:20:41;9.93;;;8.93;;
12290;SDS011;6208;48.956;9.076;2023-04-10T06:23:26;9.00;;;8.17;;
12290;SDS011;6208;48.956;9.076;2023-04-10T06:26:11;10.60;;;8.80;;
12290;SDS011;6208;48.956;9.076;2023-04-10T06:28:55;10.37;;;8.60;;
12290;SDS011;6208;48.956;9.076;2023-04-10T06:31:39;10.73;;;9.63;;
12290;SDS011;6208;48.956;9.076;2023-04-10T06:34:24;9.68;;;8.68;;
12290;SDS011;6208;48.956;9.076;2023-04-10T06:37:08;8.70;;;7.80;;
12290;SDS011;6208;48.956;9.076;2023-04-10T06:40:00;8.82;;;7.97;;
12290;SDS011;6208;48.956;9.076;2023-04-10T06:42:48;9.38;;;8.38;;
12290;SDS011;6208;48.956;9.076;2023-04-10T06:45:33;9.27;;;8.47;;
12290;SDS011;6208;48.956;9.076;2023-04-10T06:48:17;8.95;;;8.05;;
12290;SDS011;6208;48.956;9.076;2023-04-10T06:51:01;9.52;;;8.25;;
12290;SDS011;6208;48.956;9.076;2023-04-10T06:53:46;9.43;;;8.50;;
12290;SDS011;6208;48.956;9.076;2023-04-10T06:56:30;9.98;;;8.98;;
12290;SDS011;6208;48.956;9.076;2023-04-10T06:59:14;9.27;;;8.38;;
12290;SDS011;6208;48.956;9.076;2023-04-10T07:01:59;8.65;;;7.75;;
12290;SDS011;6208;48.956;9.076;2023-04-10T07:04:43;8.10;;;7.40;;
12290;SDS011;6208;48.956;9.076;2023-04-10T07:07:27;9.80;;;8.90;;
12290;SDS011;6208;48.956;9.076;2023-04-10T07:10:11;11.10;;;9.63;;
12290;SDS011;6208;48.956;9.076;2023-04-10T07:12:55;10.10;;;9.10;;
12290;SDS011;6208;48.956;9.076;2023-04-10T07:15:41;8.45;;;7.65;;
12290;SDS011;6208;48.956;9.076;2023-04-10T07:18:25;8.35;;;7.55;;
12290;SDS011;6208;48.956;9.076;2023-04-10T07:21:09;9.70;;;8.70;;
12290;SDS011;6208;48.956;9.076;2023-04-10T07:23:57;8.80;;;7.90;;
12290;SDS011;6208;48.956;9.076;2023-04-10T07:26:41;8.95;;;8.05;;
12290;SDS011;6208;48.956;9.076;2023-04-10T07:29:29;9.00;;;8.15;;
12290;SDS011;6208;48.956;9.076;2023-04-10T07:32:14;8.75;;;7.85;;
12290;SDS011;6208;48.956;9.076;2023-04-10T07:34:58;8.90;;;8.00;;
12290;SDS011;6208;48.956;9.076;2023-04-10T07:37:43;9.68;;;8.70;;
12290;SDS011;6208;48.956;9.076;2023-04-10T07:40:27;9.27;;;8.38;;
12290;SDS011;6208;48.956;9.076;2023-04-10T07:43:11;9.02;;;8.23;;
12290;SDS011;6208;48.956;9.076;2023-04-10T07:45:56;8.82;;;7.93;;
12290;SDS011;6208;48.956;9.076;2023-04-10T07:48:40;8.93;;;8.13;;
12290;SDS011;6208;48.956;9.076;2023-04-10T07:51:24;9.80;;;8.90;;
12290;SDS011;6208;48.956;9.076;2023-04-10T07:54:10;8.70;;;7.90;;
12290;SDS011;6208;48.956;9.076;2023-04-10T07:56:54;7.70;;;7.00;;
12290;SDS011;6208;48.956;9.076;2023-04-10T07:59:38;8.20;;;7.43;;
12290;SDS011;6208;48.956;9.076;2023-04-10T08:02:22;7.43;;;6.82;;
12290;SDS011;6208;48.956;9.076;2023-04-10T08:05:06;7.07;;;6.40;;
12290;SDS011;6208;48.956;9.076;2023-04-10T08:07:51;7.40;;;6.68;;
12290;SDS011;6208;48.956;9.076;2023-04-10T08:10:35;6.65;;;6.05;;
12290;SDS011;6208;48.956;9.076;2023-04-10T08:13:21;6.10;;;5.60;;
12290;SDS011;6208;48.956;9.076;2023-04-10T08:16:05;5.82;;;5.43;;
12290;SDS011;6208;48.956;9.076;2023-04-10T08:18:50;6.03;;;5.53;;
12290;SDS011;6208;48.956;9.076;2023-04-10T08:21:35;5.55;;;5.15;;
12290;SDS011;6208;48.956;9.076;2023-04-10T08:24:19;4.88;;;4.47;;
12290;SDS011;6208;48.956;9.076;2023-04-10T08:27:05;5.40;;;5.00;;
12290;SDS011;6208;48.956;9.076;2023-04-10T08:29:49;5.18;;;4.78;;
12290;SDS011;6208;48.956;9.076;2023-04-10T08:32:33;5.10;;;4.70;;
12290;SDS011;6208;48.956;9.076;2023-04-10T08:35:18;6.07;;;5.47;;
12290;SDS011;6208;48.956;9.076;2023-04-10T08:38:02;5.72;;;5.22;;
12290;SDS011;6208;48.956;9.076;2023-04-10T08:40:47;6.10;;;5.57;;
12290;SDS011;6208;48.956;9.076;2023-04-10T08:43:31;4.75;;;4.35;;
12290;SDS011;6208;48.956;9.076;2023-04-10T08:46:17;4.68;;;4.28;;
12290;SDS011;6208;48.956;9.076;2023-04-10T08:49:01;4.90;;;4.50;;
12290;SDS011;6208;48.956;9.076;2023-04-10T08:51:51;4.95;;;4.55;;
12290;SDS011;6208;48.956;9.076;2023-04-10T08:54:40;4.97;;;4.47;;
12290;SDS011;6208;48.956;9.076;2023-04-10T08:57:26;4.75;;;4.45;;
12290;SDS011;6208;48.956;9.076;2023-04-10T09:00:11;5.20;;;4.80;;
12290;SDS011;6208;48.956;9.076;2023-04-10T09:02:56;5.45;;;4.95;;
12290;SDS011;6208;48.956;9.076;2023-04-10T09:05:41;4.97;;;4.63;;
12290;SDS011;6208;48.956;9.076;2023-04-10T09:08:25;4.97;;;4.57;;
12290;SDS011;6208;48.956;9.076;2023-04-10T09:11:09;5.20;;;4.80;;
12290;SDS011;6208;48.956;9.076;2023-04-10T09:13:55;5.22;;;4.82;;
12290;SDS011;6208;48.956;9.076;2023-04-10T09:16:39;4.88;;;4.50;;
12290;SDS011;6208;48.956;9.076;2023-04-10T09:19:33;5.07;;;4.68;;
12290;SDS011;6208;48.956;9.076;2023-04-10T09:22:17;5.82;;;4.97;;
12290;SDS011;6208;48.956;9.076;2023-04-10T09:25:27;5.55;;;5.15;;
12290;SDS011;6208;48.956;9.076;2023-04-10T09:28:11;5.22;;;4.82;;
12290;SDS011;6208;48.956;9.076;2023-04-10T09:30:55;4.97;;;4.65;;
12290;SDS011;6208;48.956;9.076;2023-04-10T09:33:39;4.97;;;4.55;;
12290;SDS011;6208;48.956;9.076;2023-04-10T09:36:23;4.60;;;4.20;;
12290;SDS011;6208;48.956;9.076;2023-04-10T09:39:09;4.15;;;3.92;;
12290;SDS011;6208;48.956;9.076;2023-04-10T09:41:55;4.13;;;3.83;;
12290;SDS011;6208;48.956;9.076;2023-04-10T09:44:39;4.25;;;3.95;;
12290;SDS011;6208;48.956;9.076;2023-04-10T09:47:26;4.45;;;4.15;;
12290;SDS011;6208;48.956;9.076;2023-04-10T09:50:11;3.45;;;3.25;;
12290;SDS011;6208;48.956;9.076;2023-04-10T09:52:58;3.78;;;3.58;;
12290;SDS011;6208;48.956;9.076;2023-04-10T09:55:42;3.88;;;3.60;;
12290;SDS011;6208;48.956;9.076;2023-04-10T09:58:26;4.15;;;3.85;;
12290;SDS011;6208;48.956;9.076;2023-04-10T10:01:11;4.10;;;3.80;;
12290;SDS011;6208;48.956;9.076;2023-04-10T10:03:58;4.32;;;4.03;;
12290;SDS011;6208;48.956;9.076;2023-04-10T10:06:45;3.67;;;3.47;;
12290;SDS011;6208;48.956;9.076;2023-04-10T10:09:30;3.20;;;3.00;;
12290;SDS011;6208;48.956;9.076;2023-04-10T10:12:18;2.95;;;2.75;;
12290;SDS011;6208;48.956;9.076;2023-04-10T10:15:15;3.40;;;3.20;;
12290;SDS011;6208;48.956;9.076;2023-04-10T10:21:18;3.00;;;2.80;;
12290;SDS011;6208;48.956;9.076;2023-04-10T10:24:06;2.72;;;2.63;;
12290;SDS011;6208;48.956;9.076;2023-04-10T10:26:51;3.20;;;3.00;;
12290;SDS011;6208;48.956;9.076;2023-04-10T10:29:42;2.65;;;2.55;;
12290;SDS011;6208;48.956;9.076;2023-04-10T10:32:28;3.20;;;3.00;;
12290;SDS011;6208;48.956;9.076;2023-04-10T10:35:14;3.13;;;2.95;;
12290;SDS011;6208;48.956;9.076;2023-04-10T10:37:59;3.30;;;3.10;;
12290;SDS011;6208;48.956;9.076;2023-04-10T10:41:04;2.67;;;2.58;;
12290;SDS011;6208;48.956;9.076;2023-04-10T10:46:57;2.90;;;2.70;;
12290;SDS011;6208;48.956;9.076;2023-04-10T10:55:32;2.83;;;2.60;;
12290;SDS011;6208;48.956;9.076;2023-04-10T10:58:17;2.63;;;2.53;;
12290;SDS011;6208;48.956;9.076;2023-04-10T11:05:01;2.55;;;2.45;;
12290;SDS011;6208;48.956;9.076;2023-04-10T11:16:43;2.45;;;2.35;;
12290;SDS011;6208;48.956;9.076;2023-04-10T11:19:29;2.50;;;2.40;;
12290;SDS011;6208;48.956;9.076;2023-04-10T11:22:39;2.85;;;2.65;;
12290;SDS011;6208;48.956;9.076;2023-04-10T11:25:54;2.70;;;2.50;;
12290;SDS011;6208;48.956;9.076;2023-04-10T11:28:38;2.78;;;2.58;;
12290;SDS011;6208;48.956;9.076;2023-04-10T11:31:22;3.10;;;2.80;;
12290;SDS011;6208;48.956;9.076;2023-04-10T11:34:07;2.50;;;2.40;;
12290;SDS011;6208;48.956;9.076;2023-04-10T11:36:53;2.80;;;2.60;;
12290;SDS011;6208;48.956;9.076;2023-04-10T11:39:37;2.58;;;2.47;;
12290;SDS011;6208;48.956;9.076;2023-04-10T11:42:21;2.67;;;2.58;;
12290;SDS011;6208;48.956;9.076;2023-04-10T11:45:24;2.55;;;2.05;;
12290;SDS011;6208;48.956;9.076;2023-04-10T11:48:10;2.53;;;2.33;;
12290;SDS011;6208;48.956;9.076;2023-04-10T11:50:55;2.33;;;2.22;;
12290;SDS011;6208;48.956;9.076;2023-04-10T11:53:40;2.17;;;2.08;;
12290;SDS011;6208;48.956;9.076;2023-04-10T11:56:24;1.98;;;1.88;;
12290;SDS011;6208;48.956;9.076;2023-04-10T11:59:09;1.80;;;1.70;;
12290;SDS011;6208;48.956;9.076;2023-04-10T12:02:09;2.33;;;2.22;;
12290;SDS011;6208;48.956;9.076;2023-04-10T12:04:57;2.55;;;2.45;;
12290;SDS011;6208;48.956;9.076;2023-04-10T12:07:41;2.15;;;2.05;;
12290;SDS011;6208;48.956;9.076;2023-04-10T12:10:25;2.15;;;2.05;;
12290;SDS011;6208;48.956;9.076;2023-04-10T12:13:22;1.60;;;1.50;;
12290;SDS011;6208;48.956;9.076;2023-04-10T12:16:08;1.30;;;1.30;;
12290;SDS011;6208;48.956;9.076;2023-04-10T12:18:53;1.50;;;1.50;;
12290;SDS011;6208;48.956;9.076;2023-04-10T12:21:38;1.58;;;1.30;;
12290;SDS011;6208;48.956;9.076;2023-04-10T12:27:29;1.40;;;1.40;;
12290;SDS011;6208;48.956;9.076;2023-04-10T12:30:13;1.45;;;1.35;;
12290;SDS011;6208;48.956;9.076;2023-04-10T12:32:58;2.33;;;1.40;;
12290;SDS011;6208;48.956;9.076;2023-04-10T12:35:46;1.13;;;1.13;;
12290;SDS011;6208;48.956;9.076;2023-04-10T12:38:42;1.10;;;1.10;;
12290;SDS011;6208;48.956;9.076;2023-04-10T12:41:28;1.70;;;1.60;;
12290;SDS011;6208;48.956;9.076;2023-04-10T12:44:14;1.10;;;1.10;;
12290;SDS011;6208;48.956;9.076;2023-04-10T12:46:59;1.27;;;1.27;;
12290;SDS011;6208;48.956;9.076;2023-04-10T12:53:04;1.40;;;1.40;;
12290;SDS011;6208;48.956;9.076;2023-04-10T12:56:03;1.30;;;1.30;;
12290;SDS011;6208;48.956;9.076;2023-04-10T12:58:49;1.42;;;1.42;;
12290;SDS011;6208;48.956;9.076;2023-04-10T13:01:49;1.48;;;1.42;;
12290;SDS011;6208;48.956;9.076;2023-04-10T13:04:34;1.30;;;1.30;;
12290;SDS011;6208;48.956;9.076;2023-04-10T13:07:18;1.50;;;1.50;;
12290;SDS011;6208;48.956;9.076;2023-04-10T13:10:02;1.50;;;1.40;;
12290;SDS011;6208;48.956;9.076;2023-04-10T13:12:48;2.17;;;2.03;;
12290;SDS011;6208;48.956;9.076;2023-04-10T13:15:32;7.00;;;1.45;;
12290;SDS011;6208;48.956;9.076;2023-04-10T13:18:17;1.15;;;1.15;;
12290;SDS011;6208;48.956;9.076;2023-04-10T13:21:02;0.95;;;0.95;;
12290;SDS011;6208;48.956;9.076;2023-04-10T13:23:46;1.45;;;1.35;;
12290;SDS011;6208;48.956;9.076;2023-04-10T13:26:30;1.00;;;1.00;;
12290;SDS011;6208;48.956;9.076;2023-04-10T13:29:14;1.83;;;1.25;;
12290;SDS011;6208;48.956;9.076;2023-04-10T13:31:58;1.00;;;1.00;;
12290;SDS011;6208;48.956;9.076;2023-04-10T13:34:43;1.08;;;1.08;;
12290;SDS011;6208;48.956;9.076;2023-04-10T13:37:27;0.80;;;0.80;;
12290;SDS011;6208;48.956;9.076;2023-04-10T13:40:11;0.93;;;0.93;;
12290;SDS011;6208;48.956;9.076;2023-04-10T13:42:55;0.90;;;0.90;;
12290;SDS011;6208;48.956;9.076;2023-04-10T13:45:40;1.05;;;1.05;;
12290;SDS011;6208;48.956;9.076;2023-04-10T13:48:24;1.00;;;1.00;;
12290;SDS011;6208;48.956;9.076;2023-04-10T13:51:08;3.47;;;3.08;;
12290;SDS011;6208;48.956;9.076;2023-04-10T13:53:52;0.93;;;0.93;;
12290;SDS011;6208;48.956;9.076;2023-04-10T13:56:36;1.02;;;1.02;;
12290;SDS011;6208;48.956;9.076;2023-04-10T13:59:20;1.05;;;1.05;;
12290;SDS011;6208;48.956;9.076;2023-04-10T14:02:04;0.95;;;0.95;;
12290;SDS011;6208;48.956;9.076;2023-04-10T14:04:49;0.90;;;0.90;;
12290;SDS011;6208;48.956;9.076;2023-04-10T14:07:33;1.05;;;1.05;;
12290;SDS011;6208;48.956;9.076;2023-04-10T14:10:18;1.10;;;1.10;;
12290;SDS011;6208;48.956;9.076;2023-04-10T14:13:04;1.10;;;1.10;;
12290;SDS011;6208;48.956;9.076;2023-04-10T14:15:49;1.27;;;1.17;;
12290;SDS011;6208;48.956;9.076;2023-04-10T14:18:36;1.02;;;1.02;;
12290;SDS011;6208;48.956;9.076;2023-04-10T14:21:20;1.20;;;1.20;;
12290;SDS011;6208;48.956;9.076;2023-04-10T14:24:04;1.50;;;1.40;;
12290;SDS011;6208;48.956;9.076;2023-04-10T14:26:48;1.60;;;1.50;;
12290;SDS011;6208;48.956;9.076;2023-04-10T14:29:34;2.05;;;1.50;;
12290;SDS011;6208;48.956;9.076;2023-04-10T14:32:18;1.65;;;1.40;;
12290;SDS011;6208;48.956;9.076;2023-04-10T14:35:03;1.70;;;1.60;;
12290;SDS011;6208;48.956;9.076;2023-04-10T14:37:47;1.70;;;1.15;;
12290;SDS011;6208;48.956;9.076;2023-04-10T14:40:32;1.38;;;1.38;;
12290;SDS011;6208;48.956;9.076;2023-04-10T14:43:16;1.15;;;1.15;;
12290;SDS011;6208;48.956;9.076;2023-04-10T14:46:01;1.48;;;1.40;;
12290;SDS011;6208;48.956;9.076;2023-04-10T14:48:46;1.65;;;1.27;;
12290;SDS011;6208;48.956;9.076;2023-04-10T14:51:30;1.58;;;1.38;;
12290;SDS011;6208;48.956;9.076;2023-04-10T14:54:14;1.10;;;1.10;;
12290;SDS011;6208;48.956;9.076;2023-04-10T14:57:06;1.65;;;1.55;;
12290;SDS011;6208;48.956;9.076;2023-04-10T14:59:50;1.08;;;1.08;;
12290;SDS011;6208;48.956;9.076;2023-04-10T15:02:34;1.33;;;1.30;;
12290;SDS011;6208;48.956;9.076;2023-04-10T15:05:20;1.10;;;1.10;;
12290;SDS011;6208;48.956;9.076;2023-04-10T15:08:05;1.33;;;1.33;;
12290;SDS011;6208;48.956;9.076;2023-04-10T15:10:50;2.10;;;2.00;;
12290;SDS011;6208;48.956;9.076;2023-04-10T15:13:35;1.17;;;1.17;;
12290;SDS011;6208;48.956;9.076;2023-04-10T15:16:20;2.15;;;1.48;;
12290;SDS011;6208;48.956;9.076;2023-04-10T15:19:04;1.50;;;1.40;;
12290;SDS011;6208;48.956;9.076;2023-04-10T15:21:48;1.50;;;1.40;;
12290;SDS011;6208;48.956;9.076;2023-04-10T15:24:32;1.40;;;1.40;;
12290;SDS011;6208;48.956;9.076;2023-04-10T15:27:20;1.65;;;1.58;;
12290;SDS011;6208;48.956;9.076;2023-04-10T15:30:04;1.58;;;1.48;;
12290;SDS011;6208;48.956;9.076;2023-04-10T15:32:49;1.65;;;1.55;;
12290;SDS011;6208;48.956;9.076;2023-04-10T15:35:36;1.80;;;1.70;;
12290;SDS011;6208;48.956;9.076;2023-04-10T15:38:20;1.67;;;1.58;;
12290;SDS011;6208;48.956;9.076;2023-04-10T15:41:08;2.45;;;2.35;;
12290;SDS011;6208;48.956;9.076;2023-04-10T15:43:53;1.67;;;1.58;;
12290;SDS011;6208;48.956;9.076;2023-04-10T15:46:37;1.25;;;1.25;;
12290;SDS011;6208;48.956;9.076;2023-04-10T15:49:21;1.73;;;1.63;;
12290;SDS011;6208;48.956;9.076;2023-04-10T15:52:05;1.40;;;1.40;;
12290;SDS011;6208;48.956;9.076;2023-04-10T15:54:49;1.60;;;1.50;;
12290;SDS011;6208;48.956;9.076;2023-04-10T15:57:34;1.30;;;1.30;;
12290;SDS011;6208;48.956;9.076;2023-04-10T16:00:18;1.80;;;1.70;;
12290;SDS011;6208;48.956;9.076;2023-04-10T16:03:03;1.45;;;1.35;;
12290;SDS011;6208;48.956;9.076;2023-04-10T16:05:47;2.00;;;1.90;;
12290;SDS011;6208;48.956;9.076;2023-04-10T16:08:32;2.00;;;1.90;;
12290;SDS011;6208;48.956;9.076;2023-04-10T16:11:16;1.60;;;1.50;;
12290;SDS011;6208;48.956;9.076;2023-04-10T16:14:00;1.33;;;1.33;;
12290;SDS011;6208;48.956;9.076;2023-04-10T16:16:44;1.60;;;1.50;;
12290;SDS011;6208;48.956;9.076;2023-04-10T16:19:29;1.40;;;1.40;;
12290;SDS011;6208;48.956;9.076;2023-04-10T16:22:13;2.13;;;1.50;;
12290;SDS011;6208;48.956;9.076;2023-04-10T16:24:58;1.75;;;1.65;;
12290;SDS011;6208;48.956;9.076;2023-04-10T16:27:43;1.65;;;1.55;;
12290;SDS011;6208;48.956;9.076;2023-04-10T16:30:27;1.58;;;1.45;;
12290;SDS011;6208;48.956;9.076;2023-04-10T16:33:11;1.60;;;1.60;;
12290;SDS011;6208;48.956;9.076;2023-04-10T16:35:55;4.25;;;1.50;;
12290;SDS011;6208;48.956;9.076;2023-04-10T16:38:45;1.40;;;1.35;;
12290;SDS011;6208;48.956;9.076;2023-04-10T16:41:32;1.17;;;1.17;;
12290;SDS011;6208;48.956;9.076;2023-04-10T16:44:16;1.45;;;1.40;;
12290;SDS011;6208;48.956;9.076;2023-04-10T16:47:00;1.85;;;1.55;;
12290;SDS011;6208;48.956;9.076;2023-04-10T16:49:45;2.10;;;1.58;;
12290;SDS011;6208;48.956;9.076;2023-04-10T16:52:29;2.45;;;1.90;;
12290;SDS011;6208;48.956;9.076;2023-04-10T16:55:14;1.98;;;1.88;;
12290;SDS011;6208;48.956;9.076;2023-04-10T16:57:58;5.47;;;2.45;;
12290;SDS011;6208;48.956;9.076;2023-04-10T17:00:43;2.10;;;2.00;;
12290;SDS011;6208;48.956;9.076;2023-04-10T17:03:27;2.80;;;1.90;;
12290;SDS011;6208;48.956;9.076;2023-04-10T17:06:11;2.15;;;1.85;;
12290;SDS011;6208;48.956;9.076;2023-04-10T17:08:56;2.15;;;2.05;;
12290;SDS011;6208;48.956;9.076;2023-04-10T17:11:40;1.95;;;1.80;;
12290;SDS011;6208;48.956;9.076;2023-04-10T17:14:24;2.10;;;2.00;;
12290;SDS011;6208;48.956;9.076;2023-04-10T17:17:08;1.50;;;1.40;;
12290;SDS011;6208;48.956;9.076;2023-04-10T17:19:52;1.52;;;1.42;;
12290;SDS011;6208;48.956;9.076;2023-04-10T17:22:37;1.70;;;1.60;;
12290;SDS011;6208;48.956;9.076;2023-04-10T17:25:24;1.83;;;1.73;;
12290;SDS011;6208;48.956;9.076;2023-04-10T17:28:08;1.83;;;1.30;;
12290;SDS011;6208;48.956;9.076;2023-04-10T17:30:53;1.65;;;1.55;;
12290;SDS011;6208;48.956;9.076;2023-04-10T17:33:37;2.05;;;1.95;;